Latest Weather Observations for Gove Airport

IDD60801

Issued at 9:31 pm CST Tuesday 28 February 2017 (issued every 30 minutes, with the page automatically refreshed every 10 minutes)

About weather observations | Map of weather stations | Latest weather observations for NT | Other Formats
Station Details ID: 014508 Name: GOVE AIRPORT Lat: -12.27 Lon: 136.82 Height: 51.6 m
Data from the previous 72 hours. | See also: Recent months at Gove Airport
Date/Time
CST
Temp
°C
App
Temp
°C
Dew
Point
°C
Rel
Hum
%
Delta-T
°C
Wind Press
QNH
hPa
Press
MSL
hPa
Rain since
9am
mm
Dir  Spd
km/h
Gust
km/h
Spd
kts
Gust
kts
28/09:30pm 26.8 31.0 24.1 85 1.9 SSE 9 13 5 7 1008.9 1008.5 0.0
28/09:00pm 26.9 31.2 24.2 85 1.9 SSE 9 11 5 6 1008.6 1008.2 0.0
28/08:30pm 27.3 31.2 24.3 84 2.1 SE 11 15 6 8 1008.5 1008.1 0.0
28/08:00pm 27.2 32.1 24.6 86 1.8 SSE 7 9 4 5 1008.3 1007.9 0.0
28/07:30pm 27.4 32.3 24.7 85 1.9 SSE 7 9 4 5 1008.1 1007.7 0.0
28/07:00pm 27.8 32.2 24.4 82 2.4 SSE 9 13 5 7 1007.5 1007.1 0.0
28/06:30pm 28.5 31.9 24.0 76 3.1 SSE 13 20 7 11 1007.0 1006.7 0.0
28/06:00pm 29.2 32.1 23.9 73 3.7 SSE 15 20 8 11 1007.0 1006.7 0.0
28/05:30pm 29.4 32.1 24.1 73 3.7 ESE 17 22 9 12 1006.7 1006.4 0.0
28/05:00pm 29.5 31.6 23.7 71 4.0 ESE 19 26 10 14 1006.4 1006.1 0.0
28/04:30pm 30.2 32.2 23.9 69 4.4 ESE 20 26 11 14 1006.4 1006.1 0.0
28/04:00pm 30.8 32.1 23.3 64 5.2 ESE 22 32 12 17 1006.3 1006.0 0.0
28/03:30pm 30.8 32.7 23.8 66 4.9 ESE 20 30 11 16 1006.5 1006.2 0.0
28/03:00pm 30.7 31.6 23.3 64 5.1 ESE 24 35 13 19 1006.8 1006.5 0.0
28/02:30pm 31.3 32.0 23.0 61 5.7 ESE 24 37 13 20 1007.0 1006.7 0.0
28/02:00pm 31.2 31.0 22.8 61 5.8 ESE 28 35 15 19 1007.2 1006.9 0.0
28/01:30pm 31.4 31.1 23.3 62 5.6 ESE 30 39 16 21 1007.5 1007.1 0.0
28/01:00pm 31.0 30.5 22.9 62 5.6 E 30 37 16 20 1007.6 1007.2 0.0
28/12:30pm 30.7 30.9 23.5 65 5.0 SE 28 44 15 24 1008.0 1007.6 0.0
28/12:00pm 30.7 31.8 23.6 66 4.9 ESE 24 33 13 18 1008.4 1008.0 0.0
28/11:30am 31.0 32.3 24.1 66 4.8 ESE 24 33 13 18 1008.6 1008.2 0.0
28/11:00am 31.1 32.9 24.9 69 4.4 ESE 24 35 13 19 1008.7 1008.3 0.0
28/10:30am 30.7 32.6 24.4 69 4.4 ESE 22 33 12 18 1009.1 1008.7 0.0
28/10:00am 30.1 31.4 24.1 70 4.2 ESE 24 33 13 18 1009.3 1008.9 0.0
28/09:30am 29.3 29.7 23.7 72 3.9 ESE 28 35 15 19 1009.4 1009.0 0.0
28/09:00am 29.1 30.3 23.9 73 3.6 ESE 24 32 13 17 1009.3 1008.9 6.6
28/08:30am 28.9 30.3 23.5 72 3.7 ESE 22 32 12 17 1009.2 1008.8 6.6
28/08:00am 28.2 30.8 24.0 78 2.9 ESE 17 24 9 13 1009.0 1008.6 6.6
28/07:30am 26.2 31.1 24.6 91 1.1 SE 7 9 4 5 1008.9 1008.5 6.6
28/07:00am 25.6 29.9 24.3 92 0.9 SE 9 11 5 6 1008.6 1008.2 6.4
28/06:30am 25.1 29.3 24.1 94 0.7 SSE 9 13 5 7 1008.5 1008.1 6.4
28/06:00am 24.9 29.2 24.3 96 0.4 SE 9 11 5 6 1008.1 1007.7 6.4
28/05:30am 24.5 28.7 24.1 98 0.3 S 9 11 5 6 1008.1 1007.7 6.4
28/05:26am 24.5 28.6 23.9 96 0.4 S 9 13 5 7 1008.1 1007.7 6.4
28/05:04am 24.4 28.4 23.8 96 0.4 SSW 9 11 5 6 1008.2 1007.8 6.2
28/05:00am 24.4 28.5 24.0 98 0.3 S 9 11 5 6 1008.2 1007.8 6.0
28/04:42am 24.5 28.6 23.9 96 0.4 SE 9 13 5 7 1008.1 1007.7 5.8
28/04:30am 24.5 27.8 23.9 96 0.4 SE 13 20 7 11 1008.1 1007.7 5.6
28/04:00am 24.5 25.0 23.9 96 0.4 SE 28 41 15 22 1008.3 1007.9 3.8
28/03:44am 24.5 25.5 23.5 94 0.7 SE 24 35 13 19 1008.4 1008.0 2.0
28/03:30am 25.2 29.7 24.0 93 0.8 SSE 7 11 4 6 1008.1 1007.7 1.8
28/03:00am 25.2 29.9 24.3 95 0.6 SSE 7 9 4 5 1007.8 1007.4 1.8
28/02:30am 25.2 30.1 24.6 96 0.4 SE 7 7 4 4 1008.1 1007.7 1.8
28/02:00am 25.4 30.4 24.5 95 0.6 SE 6 7 3 4 1008.4 1008.0 1.8
28/01:47am 25.4 30.2 24.4 94 0.7 SE 7 9 4 5 1008.5 1008.1 1.8
28/01:30am 25.8 28.9 23.5 87 1.6 SE 13 20 7 11 1008.6 1008.2 1.8
28/01:10am 25.6 29.9 24.3 92 0.9 SSE 9 22 5 12 1008.9 1008.5 0.8
28/01:00am 25.5 30.2 24.0 91 1.0 SSE 6 7 3 4 1008.8 1008.4 0.4
28/12:30am 25.7 30.5 24.1 91 1.1 SSE 6 7 3 4 1009.1 1008.7 0.4
28/12:00am 25.9 31.9 24.2 90 1.2 CALM 0 0 0 0 1009.4 1009.0 0.4
 
Date/Time
CST
Temp
°C
App
Temp
°C
Dew
Point
°C
Rel
Hum
%
Delta-T
°C
Wind Press
QNH
hPa
Press
MSL
hPa
Rain since
9am
mm
Dir  Spd
km/h
Gust
km/h
Spd
kts
Gust
kts
27/11:30pm 26.0 30.1 24.0 89 1.4 SSE 9 11 5 6 1009.2 1008.8 0.4
27/11:00pm 26.1 30.5 24.4 90 1.2 SSE 9 11 5 6 1009.6 1009.2 0.4
27/10:30pm 25.9 30.8 24.3 91 1.1 ESE 6 7 3 4 1010.0 1009.6 0.4
27/10:00pm 25.9 30.3 24.5 92 1.0 SE 9 9 5 5 1009.7 1009.3 0.4
27/09:30pm 25.9 30.8 24.6 92 0.9 SE 7 9 4 5 1009.3 1008.9 0.4
27/09:00pm 26.2 32.0 24.5 90 1.2 SE 2 7 1 4 1008.9 1008.5 0.4
27/08:30pm 26.4 31.4 24.5 89 1.3 SE 6 7 3 4 1008.4 1008.0 0.4
27/08:00pm 26.7 31.1 24.5 88 1.5 SSE 9 11 5 6 1008.2 1007.8 0.4
27/07:55pm 26.7 31.6 24.7 89 1.4 S 7 11 4 6 1008.2 1007.8 0.4
27/07:30pm 27.0 31.9 24.7 87 1.6 SSE 7 9 4 5 1008.0 1007.6 0.4
27/07:27pm 27.1 32.0 24.7 87 1.7 SSE 7 9 4 5 1007.9 1007.5 0.4
27/07:00pm 27.5 33.3 25.1 87 1.7 ESE 4 7 2 4 1007.8 1007.4 0.4
27/06:30pm 28.2 33.2 24.5 80 2.6 ENE 6 9 3 5 1007.7 1007.3 0.4
27/06:00pm 28.5 32.9 24.5 79 2.8 ESE 9 11 5 6 1007.7 1007.3 0.4
27/05:30pm 28.8 32.3 24.2 76 3.2 ESE 13 17 7 9 1007.2 1006.9 0.4
27/05:00pm 29.0 32.2 24.3 76 3.3 ESE 15 19 8 10 1007.0 1006.7 0.4
27/04:30pm 29.5 32.3 24.3 73 3.6 ESE 17 20 9 11 1006.7 1006.4 0.4
27/04:00pm 30.2 33.0 24.3 70 4.1 ESE 17 22 9 12 1006.7 1006.4 0.4
27/03:30pm 31.1 33.7 23.9 65 5.0 SE 17 28 9 15 1006.7 1006.4 0.4
27/03:00pm 30.5 32.1 23.3 65 5.0 ESE 20 26 11 14 1007.0 1006.7 0.4
27/02:30pm 30.9 31.9 22.9 62 5.5 E 22 30 12 16 1007.0 1006.7 0.4
27/02:00pm 30.0 31.6 23.8 69 4.3 SE 22 32 12 17 1007.5 1007.1 0.4
27/01:30pm 30.9 32.5 23.9 66 4.9 E 22 30 12 16 1007.7 1007.3 0.4
27/01:00pm 31.4 33.0 23.9 64 5.2 E 22 32 12 17 1007.9 1007.5 0.4
27/12:30pm 31.1 32.3 23.8 65 5.1 E 24 32 13 17 1008.4 1008.0 0.4
27/12:00pm 31.6 34.0 24.6 66 4.9 E 20 26 11 14 1008.8 1008.4 0.4
27/11:30am 30.9 32.7 24.2 67 4.7 ESE 22 30 12 16 1009.3 1008.9 0.4
27/11:00am 30.0 32.1 24.1 70 4.1 ESE 20 24 11 13 1009.6 1009.2 0.2
27/10:30am 29.7 32.1 24.3 73 3.8 ESE 19 26 10 14 1009.7 1009.3 0.2
27/10:00am 28.6 32.5 25.5 83 2.2 SE 15 20 8 11 1009.9 1009.5 0.2
27/09:30am 29.5 32.2 24.2 73 3.7 ESE 17 22 9 12 1010.1 1009.7 0.0
27/09:00am 28.8 32.7 24.8 79 2.8 SE 13 15 7 8 1009.8 1009.4 3.6
27/08:30am 27.2 31.9 24.3 84 2.0 ESE 7 9 4 5 1009.7 1009.3 3.6
27/08:00am 25.4 29.2 23.5 89 1.3 E 9 11 5 6 1009.4 1009.0 3.6
27/07:30am 25.2 28.8 23.7 91 1.0 SE 11 26 6 14 1009.3 1008.9 3.6
27/07:00am 25.2 30.7 24.6 96 0.4 SSE 4 7 2 4 1008.6 1008.2 3.6
27/06:30am 24.9 31.0 24.5 98 0.3 CALM 0 0 0 0 1008.6 1008.2 3.6
27/06:00am 24.7 29.5 24.1 96 0.4 SSW 6 9 3 5 1008.3 1007.9 3.6
27/05:30am 24.9 30.5 24.3 96 0.4 SSE 2 6 1 3 1008.4 1008.0 3.6
27/05:00am 24.8 30.1 24.4 98 0.3 S 4 7 2 4 1008.2 1007.8 3.6
27/04:30am 24.7 30.7 24.3 98 0.3 CALM 0 0 0 0 1007.9 1007.5 3.6
27/04:00am 24.9 30.9 24.3 96 0.4 CALM 0 0 0 0 1008.0 1007.6 3.6
27/03:30am 25.1 29.5 24.4 96 0.5 S 9 11 5 6 1008.0 1007.6 3.6
27/03:00am 25.0 29.9 24.4 96 0.4 SSW 6 7 3 4 1008.1 1007.7 3.6
27/02:30am 25.1 30.6 24.7 98 0.3 SSW 4 7 2 4 1008.2 1007.8 3.6
27/02:00am 25.0 31.2 24.6 98 0.3 CALM 0 0 0 0 1008.5 1008.1 3.6
27/01:30am 25.2 31.5 24.8 98 0.3 CALM 0 0 0 0 1008.8 1008.4 3.6
27/01:00am 25.2 31.5 24.8 98 0.3 CALM 0 0 0 0 1008.8 1008.4 3.6
27/12:30am 25.3 31.7 24.9 98 0.3 CALM 0 0 0 0 1009.1 1008.7 3.6
27/12:00am 25.4 31.7 24.8 96 0.4 CALM 0 0 0 0 1009.5 1009.1 3.6
 
Date/Time
CST
Temp
°C
App
Temp
°C
Dew
Point
°C
Rel
Hum
%
Delta-T
°C
Wind Press
QNH
hPa
Press
MSL
hPa
Rain since
9am
mm
Dir  Spd
km/h
Gust
km/h
Spd
kts
Gust
kts
26/11:30pm 25.5 30.8 24.9 96 0.4 SSW 6 7 3 4 1009.6 1009.2 3.6
26/11:00pm 26.1 31.8 25.0 94 0.8 NE 4 7 2 4 1009.6 1009.2 3.6
26/10:30pm 25.6 31.9 24.7 95 0.6 CALM 0 0 0 0 1009.6 1009.2 3.6
26/10:00pm 25.2 29.7 24.0 93 0.8 SSE 7 11 4 6 1009.6 1009.2 3.6
26/09:30pm 25.4 30.0 24.1 92 0.9 SSW 7 9 4 5 1009.1 1008.7 3.6
26/09:10pm 25.7 30.6 24.7 94 0.7 S 7 9 4 5 1008.9 1008.5 3.6
26/09:00pm 25.8 30.8 24.8 94 0.7 SSE 7 11 4 6 1008.9 1008.5 3.6
26/08:38pm 26.7 31.3 25.3 92 1.0 ESE 11 26 6 14 1008.8 1008.4 0.6
26/08:30pm 27.6 32.7 24.7 84 2.0 SE 6 9 3 5 1008.7 1008.3 0.0
26/08:00pm 27.8 33.2 25.1 85 1.9 NE 6 7 3 4 1008.3 1007.9 0.0
26/07:30pm 27.7 32.5 24.5 83 2.2 ENE 7 9 4 5 1007.9 1007.5 0.0
26/07:00pm 28.0 32.4 24.4 81 2.5 E 9 13 5 7 1007.5 1007.1 0.0
26/06:30pm 28.6 32.5 24.3 77 3.0 E 11 15 6 8 1007.0 1006.7 0.0
26/06:00pm 28.9 32.4 24.2 76 3.3 E 13 17 7 9 1006.8 1006.5 0.0
26/05:30pm 29.8 32.9 24.2 72 3.9 E 15 22 8 12 1006.6 1006.3 0.0
26/05:00pm 30.3 32.6 24.1 69 4.3 ESE 19 24 10 13 1006.6 1006.3 0.0
26/04:30pm 30.8 33.1 23.4 64 5.1 E 17 28 9 15 1006.3 1006.0 0.0
26/04:00pm 30.9 32.9 23.9 66 4.9 ESE 20 28 11 15 1006.1 1005.8 0.0
26/03:30pm 30.5 32.4 23.7 67 4.7 ESE 20 28 11 15 1006.3 1006.0 0.0
26/03:00pm 31.3 33.5 23.2 62 5.6 SE 17 24 9 13 1006.5 1006.2 0.0
26/02:30pm 30.9 31.9 22.9 62 5.5 SE 22 30 12 16 1006.3 1006.0 0.0
26/02:00pm 30.9 32.2 22.7 61 5.6 SE 20 28 11 15 1006.4 1006.1 0.0
26/01:30pm 30.5 32.0 23.1 64 5.1 SE 20 26 11 14 1006.8 1006.5 0.0
26/01:00pm 31.3 33.2 23.4 63 5.5 SE 19 24 10 13 1007.2 1006.9 0.0
26/12:30pm 30.6 32.5 23.4 65 5.0 SE 19 26 10 14 1007.6 1007.2 0.0
26/12:00pm 31.0 33.5 23.2 63 5.4 SSE 15 20 8 11 1007.8 1007.4 0.0
26/11:30am 30.1 32.1 23.9 69 4.3 SE 20 30 11 16 1008.3 1007.9 0.0
26/11:00am 30.4 32.4 23.6 67 4.7 SE 19 28 10 15 1008.5 1008.1 0.0
26/10:30am 30.5 33.0 24.4 70 4.3 SE 19 26 10 14 1008.8 1008.4 0.0
26/10:17am 29.1 33.5 25.1 79 2.8 SSE 11 15 6 8 1008.9 1008.5 0.0
26/10:03am 27.7 30.7 24.7 84 2.1 SSE 17 26 9 14 1009.1 1008.7 0.0
26/10:00am 27.7 30.4 24.2 81 2.4 SE 17 26 9 14 1009.1 1008.7 0.0
26/09:30am 29.8 33.1 24.5 73 3.7 ESE 15 20 8 11 1009.2 1008.8 0.0
26/09:00am 29.1 32.3 24.4 76 3.3 ESE 15 20 8 11 1009.2 1008.8 0.4
26/08:30am 29.4 34.0 25.3 78 2.9 ESE 11 15 6 8 1009.1 1008.7 0.4
26/08:00am 28.1 32.9 25.1 84 2.1 ESE 9 13 5 7 1008.8 1008.4 0.4
26/07:30am 26.6 32.8 25.2 92 1.0 S 2 7 1 4 1008.6 1008.2 0.4
26/07:00am 24.6 30.6 24.3 98 0.2 CALM 0 0 0 0 1008.1 1007.7 0.4
26/06:30am 24.4 30.2 24.0 98 0.3 CALM 0 0 0 0 1008.0 1007.6 0.4
26/06:00am 24.2 29.9 23.8 98 0.3 CALM 0 6 0 3 1007.7 1007.3 0.4
26/05:30am 24.1 29.4 23.7 98 0.3 SSW 2 7 1 4 1007.2 1006.9 0.4
26/05:00am 24.2 28.8 23.8 98 0.3 SW 6 7 3 4 1007.0 1006.7 0.4
26/04:30am 24.1 28.6 23.7 98 0.3 WSW 6 9 3 5 1007.0 1006.7 0.4
26/04:00am 24.3 30.0 23.7 96 0.4 CALM 0 0 0 0 1007.0 1006.7 0.4
26/03:30am 24.3 30.0 23.7 96 0.4 CALM 0 0 0 0 1007.0 1006.7 0.4
26/03:00am 24.3 28.8 23.7 96 0.4 S 6 7 3 4 1007.1 1006.8 0.4
26/02:30am 24.8 29.2 23.5 92 0.9 SSW 6 9 3 5 1007.0 1006.7 0.4
26/02:00am 24.5 28.7 23.5 94 0.7 SSW 7 9 4 5 1007.6 1007.2 0.4
26/01:30am 24.4 29.6 23.5 95 0.6 SW 2 7 1 4 1008.1 1007.7 0.4
26/01:00am 24.6 30.2 23.6 94 0.7 CALM 0 0 0 0 1008.5 1008.1 0.4
26/12:30am 24.7 28.8 23.2 91 1.0 SSW 7 7 4 4 1008.8 1008.4 0.4
26/12:00am 25.1 29.2 23.2 89 1.3 SSW 7 9 4 5 1009.0 1008.6 0.4
 
Date/Time
CST
Temp
°C
App
Temp
°C
Dew
Point
°C
Rel
Hum
%
Delta-T
°C
Wind Press
QNH
hPa
Press
MSL
hPa
Rain since
9am
mm
Dir  Spd
km/h
Gust
km/h
Spd
kts
Gust
kts
25/11:30pm 25.5 29.2 23.2 87 1.6 S 9 11 5 6 1009.2 1008.8 0.4
25/11:00pm 25.0 29.4 23.4 91 1.1 S 6 7 3 4 1009.5 1009.1 0.4
25/10:30pm 25.2 29.7 23.6 91 1.1 S 6 7 3 4 1009.8 1009.4 0.4
25/10:00pm 25.2 29.6 23.4 90 1.2 SSW 6 9 3 5 1009.8 1009.4 0.4

Other Formats:

Comma delimited format used in spreadsheet applications
http://www.bom.gov.au/fwo/IDD60801/IDD60801.94150.axf

JavaScript Object Notation format (JSON) in row-major order
http://www.bom.gov.au/fwo/IDD60801/IDD60801.94150.json